createdAt,value
2017-10-28T00:01:16.973Z,10.80
2017-10-28T00:03:45.245Z,10.70
2017-10-28T00:06:13.527Z,10.70
2017-10-28T00:08:41.780Z,10.80
2017-10-28T00:11:09.328Z,10.80
2017-10-28T00:13:36.851Z,10.90
2017-10-28T00:16:04.385Z,11.00
2017-10-28T00:18:32.658Z,11.00
2017-10-28T00:21:01.046Z,11.00
2017-10-28T00:23:28.547Z,11.00
2017-10-28T00:25:56.089Z,10.90
2017-10-28T00:28:23.652Z,10.80
2017-10-28T00:30:56.942Z,10.80
2017-10-28T00:33:30.169Z,10.90
2017-10-28T00:36:03.490Z,10.90
2017-10-28T00:38:31.798Z,11.00
2017-10-28T00:40:59.317Z,11.00
2017-10-28T00:43:27.032Z,11.00
2017-10-28T00:45:54.552Z,11.00
2017-10-28T00:48:22.865Z,11.00
2017-10-28T00:50:50.376Z,11.00
2017-10-28T00:53:17.897Z,11.00
2017-10-28T00:55:45.392Z,11.20
2017-10-28T00:58:12.890Z,11.20
2017-10-28T01:00:40.467Z,11.10
2017-10-28T01:03:07.977Z,11.20
2017-10-28T01:05:35.484Z,11.00
2017-10-28T01:08:02.985Z,11.10
2017-10-28T01:10:30.647Z,11.10
2017-10-28T01:12:58.164Z,10.90
2017-10-28T01:15:25.753Z,10.80
2017-10-28T01:17:53.261Z,10.90
2017-10-28T01:20:20.783Z,10.90
2017-10-28T01:22:48.274Z,10.90
2017-10-28T01:25:16.538Z,10.90
2017-10-28T01:27:44.048Z,10.90
2017-10-28T01:30:11.567Z,11.00
2017-10-28T01:32:39.064Z,11.10
2017-10-28T01:35:06.796Z,10.90
2017-10-28T01:37:35.148Z,10.80
2017-10-28T01:40:02.675Z,10.80
2017-10-28T01:42:30.181Z,10.80
2017-10-28T01:44:58.452Z,10.70
2017-10-28T01:47:26.764Z,10.60
2017-10-28T01:49:54.296Z,10.60
2017-10-28T01:52:21.790Z,10.50
2017-10-28T01:54:49.285Z,10.50
2017-10-28T01:57:16.827Z,10.40
2017-10-28T01:59:44.330Z,10.20
2017-10-28T02:02:12.610Z,10.20
2017-10-28T02:04:40.132Z,10.20
2017-10-28T02:07:07.741Z,10.20
2017-10-28T02:09:35.256Z,10.20
2017-10-28T02:12:02.765Z,10.20
2017-10-28T02:14:30.283Z,10.20
2017-10-28T02:16:57.793Z,10.30
2017-10-28T02:19:25.317Z,10.30
2017-10-28T02:21:52.839Z,10.40
2017-10-28T02:24:20.373Z,10.40
2017-10-28T02:26:47.879Z,10.50
2017-10-28T02:29:15.396Z,10.40
2017-10-28T02:31:42.927Z,10.50
2017-10-28T02:34:10.448Z,10.60
2017-10-28T02:36:37.946Z,10.70
2017-10-28T02:39:06.230Z,10.70
2017-10-28T02:41:34.499Z,10.50
2017-10-28T02:44:02.832Z,10.50
2017-10-28T02:46:30.329Z,10.50
2017-10-28T02:48:57.862Z,10.40
2017-10-28T02:51:25.368Z,10.50
2017-10-28T02:53:52.891Z,10.50
2017-10-28T02:56:20.422Z,10.50
2017-10-28T02:58:47.959Z,10.50
2017-10-28T03:01:15.458Z,10.50
2017-10-28T03:03:42.977Z,10.50
2017-10-28T03:06:10.481Z,10.40
2017-10-28T03:08:37.999Z,10.40
2017-10-28T03:11:05.513Z,10.50
2017-10-28T03:13:33.033Z,10.40
2017-10-28T03:16:01.305Z,10.50
2017-10-28T03:18:28.813Z,10.50
2017-10-28T03:20:57.127Z,10.60
2017-10-28T03:23:24.641Z,10.60
2017-10-28T03:25:52.213Z,10.30
2017-10-28T03:28:20.492Z,10.20
2017-10-28T03:30:48.751Z,10.30
2017-10-28T03:33:16.277Z,10.30
2017-10-28T03:35:43.787Z,10.10
2017-10-28T03:38:11.304Z,10.10
2017-10-28T03:40:38.812Z,10.10
2017-10-28T03:43:07.218Z,10.00
2017-10-28T03:45:34.736Z,10.00
2017-10-28T03:48:03.012Z,10.10
2017-10-28T03:50:30.508Z,10.10
2017-10-28T03:52:58.035Z,10.10
2017-10-28T03:55:25.541Z,9.90
2017-10-28T03:57:53.049Z,10.00
2017-10-28T04:00:20.559Z,10.00
2017-10-28T04:02:48.068Z,10.00
2017-10-28T04:05:15.574Z,9.90
2017-10-28T04:07:43.087Z,10.00
2017-10-28T04:10:10.885Z,9.90
2017-10-28T04:12:38.400Z,10.00
2017-10-28T04:15:05.913Z,9.90
2017-10-28T04:17:33.399Z,9.90
2017-10-28T04:20:00.906Z,9.90
2017-10-28T04:22:28.419Z,9.90
2017-10-28T04:24:55.938Z,10.00
2017-10-28T04:27:23.462Z,10.00
2017-10-28T04:29:51.006Z,9.90
2017-10-28T04:32:18.539Z,10.00
2017-10-28T04:34:46.064Z,10.10
